createdAt,value
2022-08-07T00:00:29.954Z,99.51
2022-08-07T00:01:44.471Z,99.96
2022-08-07T00:02:44.156Z,99.96
2022-08-07T00:03:47.358Z,100.00
2022-08-07T00:04:45.368Z,100.00
2022-08-07T00:05:48.156Z,100.00
2022-08-07T00:06:52.421Z,100.00
2022-08-07T00:07:59.729Z,100.00
2022-08-07T00:08:59.627Z,100.00
2022-08-07T00:10:25.653Z,100.00
2022-08-07T00:11:09.244Z,100.00
2022-08-07T00:12:15.250Z,100.00
2022-08-07T00:13:24.019Z,99.37
2022-08-07T00:14:25.339Z,99.56
2022-08-07T00:15:38.170Z,99.48
2022-08-07T00:16:36.970Z,99.42
2022-08-07T00:17:41.280Z,99.26
2022-08-07T00:18:43.664Z,99.23
2022-08-07T00:20:01.577Z,98.97
2022-08-07T00:22:05.717Z,98.58
2022-08-07T00:23:09.237Z,98.40
2022-08-07T00:24:12.110Z,98.07
2022-08-07T00:25:16.587Z,98.42
2022-08-07T00:26:48.668Z,98.08
2022-08-07T00:27:23.274Z,97.82
2022-08-07T00:28:33.288Z,98.43
2022-08-07T00:29:33.826Z,98.83
2022-08-07T00:30:38.163Z,99.44
2022-08-07T00:31:41.502Z,100.00
2022-08-07T00:32:47.151Z,100.00
2022-08-07T00:33:49.603Z,100.00
2022-08-07T00:34:52.122Z,100.00
2022-08-07T00:35:56.032Z,100.00
2022-08-07T00:36:58.714Z,100.00
2022-08-07T00:38:01.900Z,100.00
2022-08-07T00:39:04.241Z,100.00
2022-08-07T00:40:07.671Z,100.00
2022-08-07T00:41:14.729Z,100.00
2022-08-07T00:42:17.451Z,100.00
2022-08-07T00:44:01.991Z,100.00
2022-08-07T00:44:24.491Z,100.00
2022-08-07T00:45:28.762Z,100.00
2022-08-07T00:46:34.204Z,100.00
2022-08-07T00:48:10.301Z,100.00
2022-08-07T00:48:42.416Z,100.00
2022-08-07T00:50:21.093Z,100.00
2022-08-07T00:50:51.577Z,100.00
2022-08-07T00:51:57.019Z,100.00
2022-08-07T00:52:57.629Z,100.00
2022-08-07T00:53:59.985Z,100.00
2022-08-07T00:55:04.605Z,100.00
2022-08-07T00:56:13.818Z,100.00
2022-08-07T00:57:12.505Z,100.00
2022-08-07T00:58:14.859Z,100.00
2022-08-07T00:59:35.595Z,100.00
2022-08-07T01:00:25.160Z,100.00
2022-08-07T01:01:28.009Z,100.00
2022-08-07T01:02:30.729Z,100.00
2022-08-07T01:03:57.202Z,100.00
2022-08-07T01:04:43.490Z,100.00
2022-08-07T01:05:51.693Z,100.00
2022-08-07T01:06:49.724Z,100.00
2022-08-07T01:07:52.342Z,100.00
2022-08-07T01:08:55.645Z,100.00
2022-08-07T01:10:05.935Z,100.00
2022-08-07T01:11:23.666Z,100.00
2022-08-07T01:12:28.680Z,100.00
2022-08-07T01:13:12.000Z,100.00
2022-08-07T01:14:16.736Z,100.00
2022-08-07T01:15:19.792Z,100.00
2022-08-07T01:16:30.333Z,100.00
2022-08-07T01:17:27.936Z,100.00
2022-08-07T01:18:31.385Z,100.00
2022-08-07T01:19:34.751Z,100.00
2022-08-07T01:20:43.286Z,100.00
2022-08-07T01:21:48.814Z,100.00
2022-08-07T01:23:00.459Z,100.00
2022-08-07T01:23:57.009Z,100.00
2022-08-07T01:25:00.311Z,100.00
2022-08-07T01:26:05.867Z,100.00
2022-08-07T01:27:19.858Z,100.00
2022-08-07T01:28:13.635Z,100.00
2022-08-07T01:29:15.978Z,100.00
2022-08-07T01:30:19.282Z,100.00
2022-08-07T01:31:21.939Z,100.00
2022-08-07T01:32:25.335Z,100.00
2022-08-07T01:33:30.120Z,100.00
2022-08-07T01:34:34.412Z,100.00
2022-08-07T01:35:52.770Z,100.00
2022-08-07T01:36:41.050Z,100.00
2022-08-07T01:37:45.369Z,100.00
2022-08-07T01:38:47.969Z,100.00
2022-08-07T01:39:50.440Z,100.00
2022-08-07T01:40:56.348Z,100.00
2022-08-07T01:42:36.931Z,100.00
2022-08-07T01:43:03.348Z,100.00
2022-08-07T01:44:06.374Z,100.00
2022-08-07T01:45:17.740Z,100.00
2022-08-07T01:46:16.603Z,100.00
2022-08-07T01:48:17.647Z,100.00
2022-08-07T01:48:30.140Z,100.00
2022-08-07T01:49:32.009Z,100.00
2022-08-07T01:52:04.299Z,100.00
2022-08-07T01:52:55.222Z,100.00
2022-08-07T01:54:09.999Z,100.00
2022-08-07T01:55:06.586Z,100.00
2022-08-07T01:56:12.877Z,100.00
2022-08-07T01:57:24.981Z,100.00
2022-08-07T01:58:33.120Z,100.00
2022-08-07T01:59:48.520Z,100.00
2022-08-07T02:00:57.965Z,100.00
2022-08-07T02:02:04.453Z,100.00
2022-08-07T02:03:21.406Z,100.00
2022-08-07T02:04:30.339Z,100.00
2022-08-07T02:05:47.697Z,100.00
2022-08-07T02:06:46.749Z,100.00
2022-08-07T02:07:52.929Z,100.00
2022-08-07T02:08:58.161Z,100.00
2022-08-07T02:10:01.639Z,100.00
2022-08-07T02:11:04.635Z,100.00
2022-08-07T02:12:10.293Z,100.00
2022-08-07T02:13:16.769Z,100.00
2022-08-07T02:14:36.056Z,100.00
2022-08-07T02:15:28.459Z,100.00
2022-08-07T02:16:33.639Z,100.00
2022-08-07T02:17:37.835Z,100.00
2022-08-07T02:18:47.084Z,100.00
2022-08-07T02:20:06.880Z,100.00
2022-08-07T02:20:55.870Z,100.00
2022-08-07T02:22:01.140Z,100.00
2022-08-07T02:23:06.955Z,100.00
2022-08-07T02:24:10.441Z,100.00
2022-08-07T02:25:18.356Z,100.00
2022-08-07T02:26:32.698Z,100.00
2022-08-07T02:27:34.263Z,100.00
2022-08-07T02:28:35.865Z,100.00
2022-08-07T02:29:48.710Z,100.00
2022-08-07T02:30:45.836Z,100.00
2022-08-07T02:31:50.976Z,100.00
2022-08-07T02:33:03.982Z,100.00
2022-08-07T02:34:11.323Z,100.00
2022-08-07T02:35:10.831Z,100.00
2022-08-07T02:36:28.478Z,100.00
2022-08-07T02:37:21.618Z,100.00
2022-08-07T02:38:28.104Z,100.00
2022-08-07T02:39:42.889Z,100.00
2022-08-07T02:40:38.147Z,100.00
2022-08-07T02:41:41.004Z,100.00
2022-08-07T02:42:46.260Z,100.00
2022-08-07T02:43:49.538Z,100.00
2022-08-07T02:44:53.085Z,100.00
2022-08-07T02:46:01.789Z,100.00
2022-08-07T02:47:03.538Z,100.00
2022-08-07T02:48:10.048Z,100.00
2022-08-07T02:49:10.408Z,100.00
2022-08-07T02:50:15.825Z,100.00
2022-08-07T02:51:41.959Z,100.00
2022-08-07T02:52:37.580Z,100.00
2022-08-07T02:53:44.650Z,100.00
2022-08-07T02:54:49.963Z,100.00
2022-08-07T02:56:04.225Z,100.00
2022-08-07T02:57:02.939Z,100.00
2022-08-07T02:58:13.170Z,100.00
2022-08-07T02:59:18.514Z,100.00
2022-08-07T03:00:23.641Z,100.00
2022-08-07T03:01:36.106Z,100.00
2022-08-07T03:02:33.409Z,100.00
2022-08-07T03:03:48.967Z,100.00
2022-08-07T03:04:45.693Z,100.00
2022-08-07T03:05:50.782Z,100.00
2022-08-07T03:06:56.252Z,100.00
2022-08-07T03:08:05.272Z,100.00
2022-08-07T03:09:05.376Z,100.00
2022-08-07T03:10:09.572Z,100.00
2022-08-07T03:11:12.202Z,100.00
2022-08-07T03:12:22.617Z,100.00
2022-08-07T03:13:20.862Z,100.00
2022-08-07T03:14:23.954Z,100.00
2022-08-07T03:15:54.099Z,100.00
2022-08-07T03:16:35.284Z,100.00
2022-08-07T03:17:53.426Z,100.00
2022-08-07T03:18:44.117Z,100.00
2022-08-07T03:19:54.609Z,100.00
2022-08-07T03:20:52.438Z,100.00
2022-08-07T03:21:56.457Z,100.00
2022-08-07T03:23:00.702Z,100.00
2022-08-07T03:24:19.790Z,100.00
2022-08-07T03:25:10.433Z,100.00
2022-08-07T03:26:23.392Z,100.00
2022-08-07T03:27:30.815Z,100.00
2022-08-07T03:28:37.032Z,100.00
2022-08-07T03:29:37.732Z,100.00
2022-08-07T03:30:41.979Z,100.00
2022-08-07T03:31:46.356Z,100.00
2022-08-07T03:32:59.312Z,100.00
2022-08-07T03:34:00.710Z,100.00
2022-08-07T03:35:18.113Z,100.00
2022-08-07T03:36:12.200Z,100.00
2022-08-07T03:37:17.747Z,100.00
2022-08-07T03:38:29.592Z,100.00
2022-08-07T03:39:46.366Z,100.00
2022-08-07T03:40:36.319Z,100.00
2022-08-07T03:41:42.232Z,100.00
2022-08-07T03:42:42.573Z,100.00
2022-08-07T03:43:57.251Z,100.00
2022-08-07T03:44:53.496Z,100.00
2022-08-07T03:45:56.314Z,100.00
2022-08-07T03:47:11.202Z,100.00
2022-08-07T03:48:04.632Z,100.00
2022-08-07T03:49:09.655Z,100.00
2022-08-07T03:50:15.335Z,100.00
2022-08-07T03:51:22.362Z,100.00
2022-08-07T03:52:28.030Z,100.00
2022-08-07T03:54:05.419Z,100.00
2022-08-07T03:54:54.320Z,100.00
2022-08-07T03:55:57.835Z,100.00
2022-08-07T03:57:03.523Z,100.00
2022-08-07T03:58:34.045Z,100.00
2022-08-07T03:59:09.436Z,100.00
2022-08-07T04:00:02.523Z,100.00
2022-08-07T04:01:11.231Z,100.00
2022-08-07T04:02:13.201Z,100.00
2022-08-07T04:03:17.833Z,100.00
2022-08-07T04:04:21.225Z,100.00
2022-08-07T04:05:39.865Z,100.00
2022-08-07T04:06:37.500Z,100.00
2022-08-07T04:07:41.693Z,100.00
2022-08-07T04:08:41.115Z,100.00
2022-08-07T04:09:50.229Z,100.00
2022-08-07T04:12:15.599Z,100.00
2022-08-07T04:12:27.547Z,100.00
2022-08-07T04:13:04.658Z,100.00
2022-08-07T04:14:09.873Z,100.00
2022-08-07T04:15:13.105Z,100.00
2022-08-07T04:16:30.091Z,100.00
2022-08-07T04:17:22.031Z,100.00
2022-08-07T04:18:57.825Z,100.00
2022-08-07T04:19:51.009Z,100.00
2022-08-07T04:20:35.130Z,100.00
2022-08-07T04:21:38.250Z,100.00
2022-08-07T04:22:53.607Z,100.00
2022-08-07T04:24:01.944Z,100.00
2022-08-07T04:24:52.812Z,100.00
2022-08-07T04:25:56.921Z,100.00
2022-08-07T04:27:00.192Z,100.00
2022-08-07T04:28:05.839Z,100.00
2022-08-07T04:29:11.045Z,100.00
2022-08-07T04:30:21.297Z,99.96
2022-08-07T04:31:38.796Z,99.93
2022-08-07T04:32:27.239Z,99.71
2022-08-07T04:33:31.463Z,99.22
2022-08-07T04:34:36.587Z,98.75
2022-08-07T04:35:41.005Z,98.54
2022-08-07T04:36:44.085Z,98.23
2022-08-07T04:38:02.769Z,97.50
2022-08-07T04:38:52.395Z,96.51
2022-08-07T04:39:55.714Z,96.11
2022-08-07T04:41:00.190Z,95.75
2022-08-07T04:42:03.875Z,95.57
2022-08-07T04:43:06.446Z,94.91
2022-08-07T04:44:12.929Z,94.78
2022-08-07T04:45:17.727Z,94.37
2022-08-07T04:46:34.228Z,93.81
2022-08-07T04:49:14.877Z,92.52
2022-08-07T04:50:17.345Z,91.85
2022-08-07T04:51:27.281Z,91.01
2022-08-07T04:52:46.740Z,90.38
2022-08-07T04:54:06.680Z,89.81
2022-08-07T04:55:15.354Z,89.09
2022-08-07T04:58:16.823Z,88.37
2022-08-07T05:00:11.430Z,85.75
2022-08-07T05:00:45.843Z,84.89
2022-08-07T05:01:55.613Z,85.11
2022-08-07T05:03:38.842Z,84.21
2022-08-07T05:04:43.904Z,82.83
2022-08-07T05:06:19.363Z,82.44
2022-08-07T05:07:21.135Z,81.64
2022-08-07T05:08:59.503Z,82.41
2022-08-07T05:09:45.575Z,82.45
2022-08-07T05:10:58.416Z,81.59
2022-08-07T05:12:02.496Z,81.27
2022-08-07T05:14:52.590Z,81.78
2022-08-07T05:14:53.407Z,81.51
2022-08-07T05:15:41.653Z,80.46
2022-08-07T05:16:46.611Z,80.45
2022-08-07T05:17:57.435Z,80.33
2022-08-07T05:20:19.606Z,78.58
2022-08-07T05:21:59.864Z,78.01
2022-08-07T05:22:32.829Z,77.00
2022-08-07T05:23:43.656Z,76.17
2022-08-07T05:24:50.404Z,75.39
2022-08-07T05:26:13.448Z,74.71
2022-08-07T05:26:59.989Z,75.07
2022-08-07T05:28:20.776Z,73.78
2022-08-07T05:29:12.793Z,74.00
2022-08-07T05:30:21.175Z,74.71
2022-08-07T05:31:25.021Z,73.34
2022-08-07T05:32:31.055Z,72.49
2022-08-07T05:33:36.858Z,72.11
2022-08-07T05:34:41.220Z,72.01
2022-08-07T05:35:45.320Z,71.44
2022-08-07T05:36:52.963Z,72.18
2022-08-07T05:38:08.581Z,72.53
2022-08-07T05:40:05.509Z,71.57
2022-08-07T05:40:17.801Z,71.53
2022-08-07T05:41:17.002Z,71.12
2022-08-07T05:42:33.393Z,70.23
2022-08-07T05:43:49.905Z,69.50
2022-08-07T05:44:29.887Z,68.75
2022-08-07T05:45:47.731Z,69.38
2022-08-07T05:46:38.039Z,68.83
2022-08-07T05:48:01.407Z,68.53
2022-08-07T05:48:57.986Z,68.71
2022-08-07T05:49:51.632Z,67.71
2022-08-07T05:50:55.613Z,65.75
2022-08-07T05:51:57.951Z,65.74
2022-08-07T05:53:01.630Z,66.27
2022-08-07T05:54:12.677Z,66.23
2022-08-07T05:55:10.857Z,67.03
2022-08-07T05:56:16.170Z,66.05
2022-08-07T05:57:20.337Z,65.64
2022-08-07T05:58:36.929Z,65.23
2022-08-07T05:59:56.047Z,64.84
2022-08-07T06:00:38.404Z,63.63
2022-08-07T06:01:44.534Z,62.64
2022-08-07T06:02:51.017Z,63.06
2022-08-07T06:03:58.988Z,62.47
2022-08-07T06:05:08.097Z,62.17
2022-08-07T06:06:12.705Z,62.26
2022-08-07T06:07:22.698Z,62.06
2022-08-07T06:08:30.951Z,61.32
2022-08-07T06:09:45.083Z,59.90
2022-08-07T06:10:31.270Z,59.60
2022-08-07T06:11:34.522Z,59.13
2022-08-07T06:12:36.938Z,59.06
2022-08-07T06:14:12.888Z,58.73
2022-08-07T06:14:49.532Z,58.26
2022-08-07T06:15:51.764Z,58.97
2022-08-07T06:16:56.024Z,58.80
2022-08-07T06:17:58.965Z,59.58
2022-08-07T06:19:03.170Z,58.39
2022-08-07T06:20:12.265Z,59.16
2022-08-07T06:22:16.874Z,58.74
2022-08-07T06:22:24.046Z,58.57
2022-08-07T06:24:37.478Z,58.63
2022-08-07T06:24:38.625Z,59.40
2022-08-07T06:25:36.112Z,57.35
2022-08-07T06:26:40.272Z,58.11
2022-08-07T06:28:01.004Z,59.49
2022-08-07T06:30:05.195Z,59.42
2022-08-07T06:31:09.162Z,60.14
2022-08-07T06:32:13.332Z,60.13
2022-08-07T06:33:16.650Z,59.29
2022-08-07T06:34:19.526Z,58.56
2022-08-07T06:35:23.026Z,59.35
2022-08-07T06:36:27.471Z,58.62
2022-08-07T06:37:43.407Z,57.88
2022-08-07T06:38:35.869Z,57.19
2022-08-07T06:40:17.844Z,57.26
2022-08-07T06:40:48.991Z,56.85
2022-08-07T06:42:03.800Z,56.64
2022-08-07T06:43:21.062Z,56.54
2022-08-07T06:44:16.321Z,57.19
2022-08-07T06:45:22.124Z,56.86
2022-08-07T06:46:35.031Z,56.58
2022-08-07T06:47:48.257Z,55.98
2022-08-07T06:48:35.352Z,57.78
2022-08-07T06:49:51.470Z,57.63
2022-08-07T06:50:47.814Z,56.45
2022-08-07T06:51:50.245Z,56.19
2022-08-07T06:52:55.773Z,55.68
2022-08-07T06:55:29.297Z,56.03
2022-08-07T06:55:31.568Z,56.41
2022-08-07T06:56:15.028Z,57.12
2022-08-07T06:57:20.377Z,57.33
2022-08-07T06:58:27.666Z,56.99
2022-08-07T07:00:13.789Z,56.05
2022-08-07T07:00:42.331Z,57.35
2022-08-07T07:01:48.893Z,56.42
2022-08-07T07:02:54.132Z,55.93
2022-08-07T07:04:05.373Z,56.50
2022-08-07T07:05:01.187Z,55.78
2022-08-07T07:06:06.238Z,55.10
2022-08-07T07:07:10.801Z,54.75
2022-08-07T07:08:18.635Z,54.09
2022-08-07T07:09:23.517Z,53.39
2022-08-07T07:10:28.902Z,53.76
2022-08-07T07:12:09.067Z,53.81
2022-08-07T07:14:03.376Z,56.58
2022-08-07T07:15:24.182Z,55.07
2022-08-07T07:16:27.257Z,56.74
2022-08-07T07:17:39.056Z,56.58
2022-08-07T07:18:51.457Z,56.68
2022-08-07T07:19:59.687Z,57.35
2022-08-07T07:21:13.689Z,56.87
2022-08-07T07:22:36.380Z,56.83
2022-08-07T07:24:10.845Z,56.89
2022-08-07T07:24:27.033Z,56.01
2022-08-07T07:26:33.530Z,56.05
2022-08-07T07:26:37.998Z,56.01
2022-08-07T07:27:55.747Z,54.91
2022-08-07T07:29:39.984Z,54.74
2022-08-07T07:30:09.699Z,54.70
2022-08-07T07:31:24.882Z,56.20
2022-08-07T07:32:32.175Z,56.25
2022-08-07T07:33:37.642Z,56.15
2022-08-07T07:34:44.242Z,55.51
2022-08-07T07:36:05.373Z,56.15
2022-08-07T07:36:57.920Z,56.62
2022-08-07T07:38:04.859Z,55.71
2022-08-07T07:39:09.363Z,56.40
2022-08-07T07:40:16.272Z,55.98
2022-08-07T07:41:22.138Z,56.50
2022-08-07T07:42:33.079Z,56.07
2022-08-07T07:43:47.923Z,55.70
2022-08-07T07:44:40.962Z,54.82
2022-08-07T07:46:36.691Z,54.45
2022-08-07T07:46:55.678Z,54.76
2022-08-07T07:47:59.119Z,55.31
2022-08-07T07:50:31.356Z,55.95
2022-08-07T07:50:35.160Z,55.86
2022-08-07T07:51:15.443Z,54.95
2022-08-07T07:52:20.167Z,54.04
2022-08-07T07:53:25.707Z,53.46
2022-08-07T07:54:30.222Z,53.31
2022-08-07T07:55:37.297Z,54.19
2022-08-07T07:56:40.739Z,54.78
2022-08-07T07:57:52.897Z,55.49
2022-08-07T07:58:50.661Z,56.50
2022-08-07T07:59:54.742Z,54.87
2022-08-07T08:00:58.970Z,54.34
2022-08-07T08:02:10.237Z,54.44
2022-08-07T08:03:16.658Z,53.50
2022-08-07T08:04:17.938Z,52.20
2022-08-07T08:05:22.358Z,52.24
2022-08-07T08:06:28.111Z,51.44
2022-08-07T08:07:33.156Z,50.75
2022-08-07T08:08:39.392Z,49.86
2022-08-07T08:09:52.141Z,49.48
2022-08-07T08:10:47.951Z,49.14
2022-08-07T08:12:02.838Z,48.94
2022-08-07T08:12:59.734Z,49.14
2022-08-07T08:14:02.213Z,49.50
2022-08-07T08:15:06.910Z,49.83
2022-08-07T08:16:13.673Z,49.69
2022-08-07T08:17:57.375Z,49.17
2022-08-07T08:18:26.994Z,49.12
2022-08-07T08:20:17.644Z,49.82
2022-08-07T08:20:39.804Z,50.73
2022-08-07T08:22:00.712Z,51.85
2022-08-07T08:22:56.395Z,52.43
2022-08-07T08:24:02.145Z,52.11
2022-08-07T08:25:24.737Z,53.21
2022-08-07T08:26:16.204Z,54.27
2022-08-07T08:27:21.422Z,54.25
2022-08-07T08:28:37.390Z,52.94
2022-08-07T08:29:34.753Z,52.92
2022-08-07T08:30:42.876Z,52.83
2022-08-07T08:31:58.769Z,52.09
2022-08-07T08:32:52.901Z,51.47
2022-08-07T08:33:57.980Z,51.20
2022-08-07T08:35:01.720Z,51.15
2022-08-07T08:36:09.273Z,50.90
2022-08-07T08:37:59.734Z,50.26
2022-08-07T08:38:21.092Z,49.90
2022-08-07T08:39:39.867Z,49.70
2022-08-07T08:40:50.590Z,49.17
2022-08-07T08:43:42.789Z,49.18
2022-08-07T08:45:06.850Z,48.67
2022-08-07T08:46:21.963Z,48.20
2022-08-07T08:47:52.907Z,47.87
2022-08-07T08:48:57.269Z,50.01
2022-08-07T08:50:28.167Z,51.11
2022-08-07T08:52:12.993Z,51.99
2022-08-07T08:52:53.806Z,51.33
2022-08-07T08:54:00.002Z,52.23
2022-08-07T08:55:07.689Z,52.99
2022-08-07T08:56:14.128Z,53.99
2022-08-07T08:57:34.183Z,54.99
2022-08-07T08:58:41.435Z,55.09
2022-08-07T08:59:59.062Z,55.86
2022-08-07T09:01:15.740Z,56.45
2022-08-07T09:02:17.159Z,57.11
2022-08-07T09:03:47.341Z,56.89
2022-08-07T09:04:56.240Z,57.53
2022-08-07T09:06:11.431Z,57.93
2022-08-07T09:07:46.210Z,59.52
2022-08-07T09:08:54.189Z,62.17
2022-08-07T09:10:09.057Z,62.96
2022-08-07T09:11:24.278Z,68.96
2022-08-07T09:12:40.695Z,70.36
2022-08-07T09:14:03.394Z,72.36
2022-08-07T09:16:22.882Z,75.44
2022-08-07T09:16:48.642Z,65.11
2022-08-07T09:18:09.952Z,66.02
2022-08-07T09:19:50.900Z,67.88
2022-08-07T09:20:35.537Z,68.62
2022-08-07T09:24:28.044Z,66.24
2022-08-07T09:24:30.560Z,64.53
2022-08-07T09:24:32.872Z,65.63
2022-08-07T09:25:40.626Z,71.30
2022-08-07T09:26:51.057Z,71.98
2022-08-07T09:29:22.279Z,69.50
2022-08-07T09:30:05.933Z,68.10
2022-08-07T09:30:46.409Z,67.24
2022-08-07T09:32:05.497Z,66.70
2022-08-07T09:33:52.469Z,65.92
2022-08-07T09:34:37.801Z,62.70
2022-08-07T09:36:01.006Z,64.45
2022-08-07T09:37:03.131Z,64.06
2022-08-07T09:38:10.473Z,65.79
2022-08-07T09:39:55.369Z,66.66
2022-08-07T09:40:33.757Z,66.56
2022-08-07T09:41:59.000Z,66.92
2022-08-07T09:44:32.667Z,66.66
2022-08-07T09:47:23.774Z,67.92
2022-08-07T09:47:42.417Z,66.71
2022-08-07T09:48:43.940Z,63.96
2022-08-07T09:50:01.531Z,61.47
2022-08-07T09:51:14.782Z,61.39
2022-08-07T09:52:34.643Z,60.34
2022-08-07T09:53:41.117Z,62.28
2022-08-07T09:54:50.900Z,62.35
2022-08-07T09:56:34.113Z,63.80
2022-08-07T09:58:03.621Z,66.26
2022-08-07T09:59:14.554Z,66.94
2022-08-07T10:00:20.664Z,68.56
2022-08-07T10:01:51.740Z,67.82
2022-08-07T10:02:55.084Z,67.21
2022-08-07T10:04:28.381Z,65.57
2022-08-07T10:06:11.995Z,64.57
2022-08-07T10:07:31.586Z,63.54
2022-08-07T10:08:40.152Z,63.27
2022-08-07T10:10:03.190Z,63.29
2022-08-07T10:12:00.969Z,64.18
2022-08-07T10:12:54.040Z,65.47
2022-08-07T10:14:31.343Z,66.23
2022-08-07T10:15:48.025Z,69.72
2022-08-07T10:17:00.900Z,67.51
2022-08-07T10:18:26.594Z,69.68
2022-08-07T10:20:00.803Z,71.01
2022-08-07T10:22:14.307Z,69.88
2022-08-07T10:24:10.074Z,69.49
2022-08-07T10:25:42.596Z,68.84
2022-08-07T10:27:02.639Z,68.87
2022-08-07T10:28:37.928Z,70.04
2022-08-07T10:30:13.148Z,68.45
2022-08-07T10:31:31.481Z,67.65
2022-08-07T10:33:02.073Z,69.43
2022-08-07T10:34:42.454Z,68.54
2022-08-07T10:36:11.017Z,67.79
2022-08-07T10:37:16.573Z,66.01
2022-08-07T10:38:48.882Z,66.26
2022-08-07T10:40:05.993Z,65.83
2022-08-07T10:41:51.815Z,67.47
2022-08-07T10:43:10.582Z,69.72
2022-08-07T10:44:38.519Z,69.53
2022-08-07T10:45:57.794Z,69.96
2022-08-07T10:46:54.937Z,71.09
2022-08-07T10:48:24.132Z,70.33
2022-08-07T10:49:51.015Z,70.26
2022-08-07T10:51:01.466Z,70.95
2022-08-07T10:52:31.944Z,71.83
2022-08-07T10:54:00.218Z,71.11
2022-08-07T10:55:37.157Z,73.63
2022-08-07T10:56:42.248Z,72.50
2022-08-07T10:57:56.177Z,74.22
2022-08-07T10:59:21.653Z,75.27
2022-08-07T11:00:36.921Z,76.58
2022-08-07T11:01:35.496Z,78.44
2022-08-07T11:02:49.038Z,77.79
2022-08-07T11:04:31.596Z,77.17
2022-08-07T11:05:44.857Z,75.26
2022-08-07T11:06:51.812Z,73.79
2022-08-07T11:08:17.182Z,73.90
2022-08-07T11:10:08.403Z,74.05
2022-08-07T11:11:02.504Z,73.57
2022-08-07T11:12:19.162Z,73.85
2022-08-07T11:14:44.578Z,73.00
2022-08-07T11:14:57.381Z,72.35
2022-08-07T11:15:41.919Z,72.37
2022-08-07T11:18:20.838Z,72.05
2022-08-07T11:19:37.730Z,72.44
2022-08-07T11:20:45.542Z,71.50
2022-08-07T11:22:33.264Z,70.86
2022-08-07T11:23:36.461Z,70.98
2022-08-07T11:25:06.463Z,70.68
2022-08-07T11:26:15.852Z,73.72
2022-08-07T11:27:33.753Z,72.86
2022-08-07T11:28:55.226Z,73.16
2022-08-07T11:30:17.650Z,74.25
2022-08-07T11:31:21.218Z,74.70
2022-08-07T11:32:31.976Z,73.24
2022-08-07T11:34:00.261Z,71.31
2022-08-07T11:36:44.941Z,71.35
2022-08-07T11:38:09.948Z,71.07
2022-08-07T11:39:04.859Z,70.94
2022-08-07T11:40:30.274Z,70.96
2022-08-07T11:42:02.076Z,71.28
2022-08-07T11:43:05.291Z,71.80
2022-08-07T11:44:18.624Z,73.99
2022-08-07T11:45:35.466Z,76.91
2022-08-07T11:46:55.840Z,75.55
2022-08-07T11:48:18.008Z,77.33
2022-08-07T11:49:50.855Z,76.99
2022-08-07T11:50:44.517Z,76.43
2022-08-07T11:52:12.057Z,75.86
2022-08-07T11:53:43.293Z,75.37
2022-08-07T11:54:57.337Z,75.72
2022-08-07T11:56:38.985Z,75.22
2022-08-07T11:58:00.092Z,74.78
2022-08-07T12:00:09.999Z,73.81
2022-08-07T12:01:02.612Z,73.63
2022-08-07T12:02:17.589Z,74.50
2022-08-07T12:03:44.497Z,73.74
2022-08-07T12:04:50.800Z,73.76
2022-08-07T12:06:38.882Z,74.00
2022-08-07T12:09:11.562Z,75.42
2022-08-07T12:10:18.974Z,75.98
2022-08-07T12:11:32.406Z,76.35
2022-08-07T12:12:45.977Z,76.19
2022-08-07T12:14:04.662Z,77.19
2022-08-07T12:15:46.736Z,78.28
2022-08-07T12:16:29.954Z,79.36
2022-08-07T12:17:59.495Z,79.38
2022-08-07T12:19:21.805Z,78.94
2022-08-07T12:20:36.687Z,78.71
2022-08-07T12:21:55.769Z,78.11
2022-08-07T12:23:09.196Z,78.43
2022-08-07T12:24:37.533Z,79.39
2022-08-07T12:26:03.423Z,78.87
2022-08-07T12:28:11.178Z,79.12
2022-08-07T12:29:37.862Z,79.68
2022-08-07T12:30:37.633Z,79.71
2022-08-07T12:32:01.575Z,79.75
2022-08-07T12:32:59.176Z,79.81
2022-08-07T12:34:04.061Z,79.96
2022-08-07T12:35:10.356Z,79.65
2022-08-07T12:36:15.833Z,81.08
2022-08-07T12:37:23.465Z,83.22
2022-08-07T12:38:29.441Z,84.13
2022-08-07T12:39:44.388Z,84.74
2022-08-07T12:40:46.746Z,84.68
2022-08-07T12:41:51.447Z,86.14
2022-08-07T12:42:55.163Z,87.56
2022-08-07T12:44:03.823Z,88.51
2022-08-07T12:45:14.219Z,90.42
2022-08-07T12:46:32.418Z,90.92
2022-08-07T12:47:37.743Z,91.60
2022-08-07T12:48:51.979Z,89.35
2022-08-07T12:50:39.104Z,88.53
2022-08-07T12:51:18.827Z,87.91
2022-08-07T12:52:33.998Z,87.77
2022-08-07T12:54:24.189Z,87.43
2022-08-07T12:55:24.918Z,86.71
2022-08-07T12:56:39.360Z,87.84
2022-08-07T12:58:00.646Z,87.40
2022-08-07T12:58:53.147Z,87.52
2022-08-07T12:59:56.599Z,87.99
2022-08-07T13:01:06.151Z,88.85
2022-08-07T13:02:17.970Z,88.08
2022-08-07T13:06:03.216Z,88.48
2022-08-07T13:06:33.114Z,88.41
2022-08-07T13:08:12.946Z,88.03
2022-08-07T13:10:51.629Z,89.42
2022-08-07T13:12:03.442Z,89.85
2022-08-07T13:13:48.062Z,90.06
2022-08-07T13:14:51.720Z,92.38
2022-08-07T13:16:16.454Z,91.78
2022-08-07T13:17:48.141Z,92.96
2022-08-07T13:18:56.931Z,93.15
2022-08-07T13:20:07.590Z,95.07
2022-08-07T13:21:50.098Z,93.78
2022-08-07T13:22:53.178Z,93.65
2022-08-07T13:24:17.649Z,94.26
2022-08-07T13:25:32.201Z,94.05
2022-08-07T13:27:09.287Z,93.15
2022-08-07T13:28:18.615Z,92.76
2022-08-07T13:29:28.390Z,92.81
2022-08-07T13:30:41.256Z,92.83
2022-08-07T13:32:00.091Z,93.73
2022-08-07T13:34:29.807Z,95.97
2022-08-07T13:34:35.775Z,98.04
2022-08-07T13:36:00.626Z,98.23
2022-08-07T13:37:00.558Z,100.00
2022-08-07T13:38:32.671Z,100.00
2022-08-07T13:40:36.155Z,100.00
2022-08-07T13:41:05.662Z,100.00
2022-08-07T13:42:11.781Z,100.00
2022-08-07T13:43:16.243Z,100.00
2022-08-07T13:46:10.432Z,100.00
2022-08-07T13:46:49.579Z,100.00
2022-08-07T13:48:06.556Z,100.00
2022-08-07T13:48:59.562Z,100.00
2022-08-07T13:50:35.896Z,100.00
2022-08-07T13:51:26.811Z,100.00
2022-08-07T13:52:30.649Z,100.00
2022-08-07T13:54:03.752Z,100.00
2022-08-07T13:55:13.230Z,100.00
2022-08-07T13:56:36.274Z,100.00
2022-08-07T13:57:38.172Z,100.00
2022-08-07T13:58:38.610Z,100.00
2022-08-07T14:00:26.629Z,100.00
2022-08-07T14:06:11.137Z,100.00
2022-08-07T14:07:14.414Z,100.00
2022-08-07T14:08:20.336Z,100.00
2022-08-07T14:10:02.274Z,100.00
2022-08-07T14:10:42.415Z,100.00
2022-08-07T14:12:01.068Z,100.00
2022-08-07T14:13:05.148Z,100.00
2022-08-07T14:14:11.316Z,100.00
2022-08-07T14:15:36.024Z,100.00
2022-08-07T14:16:41.522Z,100.00
2022-08-07T14:18:15.963Z,100.00
2022-08-07T14:18:56.847Z,100.00
2022-08-07T14:20:41.161Z,100.00
2022-08-07T14:22:01.830Z,100.00
2022-08-07T14:22:34.318Z,100.00
2022-08-07T14:24:00.723Z,100.00
2022-08-07T14:24:43.410Z,100.00
2022-08-07T14:25:49.035Z,100.00
2022-08-07T14:27:01.455Z,100.00
2022-08-07T14:30:09.807Z,100.00
2022-08-07T14:30:32.585Z,100.00
2022-08-07T14:31:43.060Z,100.00
2022-08-07T14:32:32.789Z,100.00
2022-08-07T14:33:44.897Z,100.00
2022-08-07T14:34:45.838Z,100.00
2022-08-07T14:35:48.638Z,100.00
2022-08-07T14:36:56.221Z,100.00
2022-08-07T14:38:05.464Z,100.00
2022-08-07T14:39:06.524Z,100.00
2022-08-07T14:40:26.574Z,100.00
2022-08-07T14:41:33.824Z,100.00
2022-08-07T14:43:55.692Z,100.00
2022-08-07T14:43:56.961Z,100.00
2022-08-07T14:44:48.994Z,100.00
2022-08-07T14:45:56.634Z,100.00
2022-08-07T14:47:08.962Z,100.00
2022-08-07T14:48:07.594Z,100.00
2022-08-07T14:49:57.702Z,100.00
2022-08-07T14:50:20.538Z,100.00
2022-08-07T14:51:27.839Z,100.00
2022-08-07T14:52:34.392Z,100.00
2022-08-07T14:54:03.528Z,100.00
2022-08-07T14:54:49.421Z,100.00
2022-08-07T14:56:00.970Z,100.00
2022-08-07T14:57:02.634Z,100.00
2022-08-07T14:58:06.996Z,100.00
2022-08-07T14:59:13.654Z,100.00
2022-08-07T15:01:42.506Z,100.00
2022-08-07T15:02:36.834Z,100.00
2022-08-07T15:03:52.260Z,100.00
2022-08-07T15:04:53.342Z,100.00
2022-08-07T15:06:57.223Z,100.00
2022-08-07T15:08:03.356Z,100.00
2022-08-07T15:11:50.799Z,100.00
2022-08-07T15:12:42.119Z,100.00
2022-08-07T15:14:09.998Z,100.00
2022-08-07T15:16:30.956Z,100.00
2022-08-07T15:17:27.001Z,100.00
2022-08-07T15:18:35.946Z,100.00
2022-08-07T15:20:30.799Z,100.00